West Yellowstone, MT

6:32 PM MDT on September 30, 2014 (GMT -0600)
Yellowstone | Change Station
CLOSE
Current Station
Airport
Location: Yellowstone,
Elevation: 7835 ft
Nearby Weather Stations

Elev 7835 ft 44.54 °N, 110.42 °W | Updated 36 minutes ago

Rain
Rain
40 °F
Feels Like 40 °F
N
0
Wind Variable Wind from North
Gusts 6 mph

Today
High -- | Low -- °F
--% Chance of Precip.
Yesterday
High -- | Low -- °F
Precip. -- in
7:21 AM 7:06 PM
Waxing Crescent, 41% visible
Pressure 29.83 in
Visibility -9999.0 miles
Clouds
Dew Point 37 °F
Humidity 89%
Rainfall 0.03 in
Snow Depth 0 in , 0 in , 0 in
UV Not available.
Pollen 3.80 out of 12
Air Quality Not available.
Flu Activity Not available.
METAR KP60 302356Z AUTO 00000KT 04/03 A2991 RMK AO1 SLP100 60002 T00440028 10067 20044 55000

More Conditions Fewer Conditions

Pressure 29.83 in
Visibility -9999.0 miles
Clouds
Dew Point 37 °F
Humidity 89%
Rainfall 0.03 in
Snow Depth 0 in , 0 in , 0 in
UV Not available.
Pollen 3.80 out of 12
Air Quality Not available.
Flu Activity Not available.
METAR KP60 302356Z AUTO 00000KT 04/03 A2991 RMK AO1 SLP100 60002 T00440028 10067 20044 55000

More Conditions Fewer Conditions

10-Day Weather Forecast

Almanac

Astronomy

Sep. 30, 2014 Rise Set
Actual Time 7:21 AM MDT 7:06 PM MDT
Civil Twilight 6:52 AM MDT 7:35 PM MDT
Nautical Twilight 6:18 AM MDT 8:09 PM MDT
Astronomical Twilight 5:43 AM MDT 8:44 PM MDT
Moon 1:44 PM MDT (9/30) 11:29 PM MDT (9/30)
Length of Visible Light 12h 43m
Length of Day
11h 45m
Tomorrow will be 3m 4s shorter.
Waxing Crescent, 41% of the Moon is Illuminated
Today
Waxing Crescent
Oct 1
First Quarter
Oct 8
Full
Oct 15
Last Quarter
Oct 23
New

Today's Extremes

State Highs State Lows

Community

WunderPhotos

Upload Photos

1,757,792 photos uploaded!

Nearby

Snow Depth

Station Depth Elevation
North Fork Jocko 0 in 6330 ft
Tepee Creek 0 in 8000 ft
Lakeview Ridge 0 in 7400 ft
Divide 0 in 7800 ft
Wood Creek 1 in 5960 ft

Earthquake Activity

City Distance Mag. Time & Date
No recent earthquake activity has been reported nearby.
Minimum magnitude displayed is 2.5.

Coastal Water Temperatures

Place Temperature
No Stations Reporting

Nearby Weather Stations